createdAt,value
2024-01-10T00:00:04.491Z,37.80
2024-01-10T00:01:04.562Z,36.30
2024-01-10T00:02:04.554Z,37.10
2024-01-10T00:03:04.463Z,38.30
2024-01-10T00:04:04.512Z,37.70
2024-01-10T00:05:04.572Z,36.80
2024-01-10T00:06:05.395Z,37.20
2024-01-10T00:07:04.450Z,37.90
2024-01-10T00:08:04.480Z,36.20
2024-01-10T00:09:04.405Z,36.20
2024-01-10T00:10:04.431Z,36.90
2024-01-10T00:11:04.467Z,36.60
2024-01-10T00:12:04.409Z,37.70
2024-01-10T00:13:04.410Z,37.00
2024-01-10T00:14:04.570Z,36.90
2024-01-10T00:15:04.371Z,35.90
2024-01-10T00:16:04.362Z,36.00
2024-01-10T00:17:04.411Z,37.00
2024-01-10T00:18:04.453Z,35.20
2024-01-10T00:19:05.449Z,35.20
2024-01-10T00:20:04.330Z,38.00
2024-01-10T00:21:04.304Z,37.00
2024-01-10T00:22:04.298Z,35.90
2024-01-10T00:23:04.349Z,38.00
2024-01-10T00:24:04.268Z,38.10
2024-01-10T00:25:04.245Z,39.40
2024-01-10T00:26:04.315Z,37.40
2024-01-10T00:27:04.261Z,37.90
2024-01-10T00:28:04.238Z,37.50
2024-01-10T00:29:05.232Z,37.20
2024-01-10T00:30:04.318Z,36.40
2024-01-10T00:31:04.322Z,35.90
2024-01-10T00:32:04.277Z,37.30
2024-01-10T00:33:04.372Z,36.90
2024-01-10T00:34:04.240Z,36.40
2024-01-10T00:35:04.348Z,35.90
2024-01-10T00:36:04.190Z,36.70
2024-01-10T00:37:04.141Z,35.80
2024-01-10T00:38:04.237Z,36.80
2024-01-10T00:39:04.147Z,36.40
2024-01-10T00:40:04.116Z,36.20
2024-01-10T00:41:04.235Z,36.00
2024-01-10T00:42:04.083Z,35.60
2024-01-10T00:43:04.103Z,36.10
2024-01-10T00:44:04.147Z,36.80
2024-01-10T00:45:04.206Z,36.60
2024-01-10T00:46:04.082Z,35.00
2024-01-10T00:47:04.212Z,34.50
2024-01-10T00:48:04.213Z,35.60
2024-01-10T00:49:04.137Z,35.60
2024-01-10T00:50:04.067Z,35.80
2024-01-10T00:51:04.023Z,34.70
2024-01-10T00:52:03.986Z,35.60
2024-01-10T00:53:04.029Z,35.00
2024-01-10T00:54:03.973Z,34.40
2024-01-10T00:55:04.000Z,34.70
2024-01-10T00:56:04.211Z,35.10
2024-01-10T00:57:03.978Z,36.00
2024-01-10T00:58:04.005Z,35.30
2024-01-10T00:59:04.004Z,33.90
2024-01-10T01:00:03.933Z,35.30
2024-01-10T01:01:03.932Z,34.30
2024-01-10T01:02:03.946Z,35.30
2024-01-10T01:03:03.963Z,34.40
2024-01-10T01:04:03.889Z,36.90
2024-01-10T01:05:04.007Z,37.20
2024-01-10T01:06:04.060Z,36.90
2024-01-10T01:07:03.892Z,37.80
2024-01-10T01:08:03.940Z,37.10
2024-01-10T01:09:03.906Z,36.40
2024-01-10T01:10:03.834Z,37.40
2024-01-10T01:11:03.851Z,36.30
2024-01-10T01:12:03.815Z,36.70
2024-01-10T01:13:03.833Z,36.80
2024-01-10T01:14:03.832Z,36.60
2024-01-10T01:15:03.846Z,36.90
2024-01-10T01:16:03.780Z,36.50
2024-01-10T01:17:03.819Z,35.10
2024-01-10T01:18:03.927Z,36.10
2024-01-10T01:19:03.870Z,35.90
2024-01-10T01:20:03.786Z,36.50
2024-01-10T01:21:03.812Z,36.40
2024-01-10T01:22:03.774Z,36.80
2024-01-10T01:23:03.798Z,35.50
2024-01-10T01:24:03.762Z,36.50
2024-01-10T01:25:03.748Z,36.10
2024-01-10T01:26:03.752Z,37.50
2024-01-10T01:27:03.717Z,35.50
2024-01-10T01:28:03.723Z,35.70
2024-01-10T01:29:03.813Z,36.30
2024-01-10T01:30:03.769Z,35.20
2024-01-10T01:31:03.764Z,35.70
2024-01-10T01:32:03.759Z,35.90
2024-01-10T01:33:03.687Z,35.20
2024-01-10T01:34:03.764Z,35.70
2024-01-10T01:35:03.661Z,36.10
2024-01-10T01:36:03.597Z,36.50
2024-01-10T01:37:03.615Z,35.30
2024-01-10T01:38:03.611Z,37.20
2024-01-10T01:39:03.630Z,37.20
2024-01-10T01:40:03.636Z,36.20
2024-01-10T01:41:03.601Z,36.10
2024-01-10T01:42:03.549Z,36.00
2024-01-10T01:43:03.569Z,36.60
2024-01-10T01:44:03.614Z,35.30
2024-01-10T01:45:03.534Z,34.80
2024-01-10T01:46:03.501Z,35.60
2024-01-10T01:47:03.577Z,35.40
2024-01-10T01:48:03.653Z,37.00
2024-01-10T01:49:03.604Z,35.40
2024-01-10T01:50:03.612Z,36.50
2024-01-10T01:51:03.455Z,36.00
2024-01-10T01:52:04.011Z,36.40
2024-01-10T01:53:03.552Z,36.20
2024-01-10T01:54:03.469Z,35.40
2024-01-10T01:55:03.443Z,35.30
2024-01-10T01:56:03.524Z,35.40
2024-01-10T01:57:03.415Z,35.50
2024-01-10T01:58:03.398Z,35.60
2024-01-10T01:59:03.487Z,36.60
2024-01-10T02:00:03.430Z,36.50
2024-01-10T02:01:03.455Z,36.40
2024-01-10T02:02:03.473Z,36.00
2024-01-10T02:03:03.631Z,36.10
2024-01-10T02:04:03.445Z,37.10
2024-01-10T02:05:03.436Z,35.40
2024-01-10T02:06:03.380Z,35.50
2024-01-10T02:07:03.464Z,35.70
2024-01-10T02:08:03.360Z,36.20
2024-01-10T02:09:03.306Z,36.60
2024-01-10T02:10:03.352Z,36.50
2024-01-10T02:11:03.317Z,36.00
2024-01-10T02:12:03.291Z,36.10
2024-01-10T02:13:03.285Z,36.70
2024-01-10T02:14:03.318Z,36.50
2024-01-10T02:15:03.308Z,35.40
2024-01-10T02:16:03.281Z,35.80
2024-01-10T02:17:03.295Z,35.60
2024-01-10T02:18:03.279Z,36.30
2024-01-10T02:19:03.364Z,36.60
2024-01-10T02:20:03.280Z,36.70
2024-01-10T02:21:03.211Z,36.40
2024-01-10T02:22:03.192Z,35.90
2024-01-10T02:23:03.209Z,36.60
2024-01-10T02:24:03.163Z,35.70
2024-01-10T02:25:03.169Z,35.90
2024-01-10T02:26:03.183Z,35.90
2024-01-10T02:27:03.140Z,35.90
2024-01-10T02:28:03.153Z,35.00
2024-01-10T02:29:03.175Z,35.40
2024-01-10T02:30:03.140Z,36.10
2024-01-10T02:31:03.242Z,35.60
2024-01-10T02:32:03.120Z,36.80
2024-01-10T02:33:03.136Z,37.00
2024-01-10T02:34:03.093Z,36.20
2024-01-10T02:35:03.184Z,36.60
2024-01-10T02:36:03.078Z,36.40
2024-01-10T02:37:03.058Z,36.00
2024-01-10T02:38:03.081Z,37.00
2024-01-10T02:39:03.084Z,36.50
2024-01-10T02:40:03.125Z,35.80
2024-01-10T02:41:03.050Z,35.80
2024-01-10T02:42:03.006Z,35.60
2024-01-10T02:43:03.016Z,36.00
2024-01-10T02:44:03.115Z,36.00
2024-01-10T02:45:03.002Z,36.80
2024-01-10T02:46:02.960Z,36.30
2024-01-10T02:47:02.974Z,37.20
2024-01-10T02:48:03.038Z,36.70
2024-01-10T02:49:02.983Z,36.50
2024-01-10T02:50:02.949Z,36.10
2024-01-10T02:51:02.936Z,35.80
2024-01-10T02:52:02.908Z,35.30
2024-01-10T02:53:02.966Z,36.10
2024-01-10T02:54:02.938Z,36.50
2024-01-10T02:55:02.919Z,34.90
2024-01-10T02:56:02.919Z,35.90
2024-01-10T02:57:02.871Z,35.70
2024-01-10T02:58:02.930Z,35.80
2024-01-10T02:59:02.899Z,34.70
2024-01-10T03:00:02.895Z,36.10
2024-01-10T03:01:02.991Z,37.40
2024-01-10T03:02:02.867Z,36.60
2024-01-10T03:03:02.812Z,36.90
2024-01-10T03:04:02.844Z,36.60
2024-01-10T03:05:03.053Z,35.30
2024-01-10T03:06:02.830Z,36.80
2024-01-10T03:07:02.800Z,37.90
2024-01-10T03:08:02.868Z,36.00
2024-01-10T03:09:02.764Z,37.10
2024-01-10T03:10:02.802Z,36.70
2024-01-10T03:11:02.875Z,35.50
2024-01-10T03:12:02.751Z,36.30
2024-01-10T03:13:02.728Z,36.30
2024-01-10T03:14:02.787Z,35.80
2024-01-10T03:15:02.769Z,34.80
2024-01-10T03:16:02.706Z,37.50
2024-01-10T03:17:02.723Z,36.90
2024-01-10T03:18:02.712Z,35.20
2024-01-10T03:19:02.747Z,36.30
2024-01-10T03:20:02.740Z,35.30
2024-01-10T03:21:02.661Z,35.20
2024-01-10T03:22:02.651Z,36.10
2024-01-10T03:23:02.756Z,36.00
2024-01-10T03:24:02.655Z,36.00
2024-01-10T03:25:02.653Z,35.00
2024-01-10T03:26:02.648Z,35.90
2024-01-10T03:27:02.679Z,37.50
2024-01-10T03:28:02.568Z,36.00
2024-01-10T03:29:02.603Z,36.10
2024-01-10T03:30:03.733Z,36.30
2024-01-10T03:31:02.618Z,37.30
2024-01-10T03:32:02.632Z,36.80
2024-01-10T03:33:02.696Z,37.00
2024-01-10T03:34:02.733Z,37.10
2024-01-10T03:35:02.676Z,36.30
2024-01-10T03:36:02.498Z,36.60
2024-01-10T03:37:02.502Z,36.00
2024-01-10T03:38:02.502Z,37.10
2024-01-10T03:39:02.500Z,37.40
2024-01-10T03:40:02.685Z,37.00
2024-01-10T03:41:02.571Z,36.60
2024-01-10T03:42:02.509Z,36.60
2024-01-10T03:43:02.532Z,36.10
2024-01-10T03:44:03.776Z,35.90
2024-01-10T03:45:02.438Z,37.20
2024-01-10T03:46:02.394Z,36.90
2024-01-10T03:47:02.478Z,35.90
2024-01-10T03:48:02.447Z,37.10
2024-01-10T03:49:02.550Z,37.30
2024-01-10T03:50:02.516Z,36.60
2024-01-10T03:51:02.362Z,36.70
2024-01-10T03:52:02.364Z,36.40
2024-01-10T03:53:02.374Z,36.60
2024-01-10T03:54:02.336Z,36.70
2024-01-10T03:55:02.374Z,36.70
2024-01-10T03:56:02.387Z,36.60
2024-01-10T03:57:02.322Z,36.90
2024-01-10T03:58:02.323Z,36.70
2024-01-10T03:59:02.436Z,37.80
2024-01-10T04:00:02.314Z,35.90
2024-01-10T04:01:03.007Z,36.90
2024-01-10T04:02:02.349Z,37.20
2024-01-10T04:03:02.311Z,36.80
2024-01-10T04:04:02.237Z,37.50
2024-01-10T04:05:02.325Z,36.50
2024-01-10T04:06:02.335Z,36.30
2024-01-10T04:07:02.267Z,37.10
2024-01-10T04:08:02.234Z,37.20
2024-01-10T04:09:02.216Z,37.10
2024-01-10T04:10:02.212Z,37.20
2024-01-10T04:11:02.243Z,36.50
2024-01-10T04:12:02.215Z,35.80
2024-01-10T04:13:02.179Z,37.70
2024-01-10T04:14:02.226Z,37.00
2024-01-10T04:15:02.172Z,37.40
2024-01-10T04:16:02.133Z,37.70
2024-01-10T04:17:02.178Z,37.80
2024-01-10T04:18:02.179Z,37.00
2024-01-10T04:19:02.290Z,37.90
2024-01-10T04:20:02.227Z,36.50
2024-01-10T04:21:02.163Z,37.30
2024-01-10T04:22:02.110Z,37.30
2024-01-10T04:23:02.095Z,37.80
2024-01-10T04:24:02.108Z,37.80
2024-01-10T04:25:03.230Z,37.80
2024-01-10T04:26:02.130Z,36.60
2024-01-10T04:27:02.073Z,37.20
2024-01-10T04:28:03.311Z,36.60
2024-01-10T04:29:02.184Z,36.50
2024-01-10T04:30:02.103Z,36.30
2024-01-10T04:31:02.072Z,35.80
2024-01-10T04:32:02.003Z,36.90
2024-01-10T04:33:02.041Z,37.20
2024-01-10T04:34:02.049Z,37.20
2024-01-10T04:35:02.064Z,37.40
2024-01-10T04:36:02.046Z,38.50
2024-01-10T04:37:01.949Z,37.30
2024-01-10T04:38:02.076Z,37.20
2024-01-10T04:39:01.933Z,37.50
2024-01-10T04:40:02.016Z,36.80
2024-01-10T04:41:01.980Z,36.20
2024-01-10T04:42:01.908Z,37.60
2024-01-10T04:43:02.015Z,37.60
2024-01-10T04:44:01.918Z,37.50
2024-01-10T04:45:01.890Z,37.90
2024-01-10T04:46:01.880Z,37.80
2024-01-10T04:47:01.937Z,37.60
2024-01-10T04:48:01.976Z,37.10
2024-01-10T04:49:01.902Z,37.50
2024-01-10T04:50:01.949Z,38.40
2024-01-10T04:51:01.878Z,37.10
2024-01-10T04:52:01.822Z,38.20
2024-01-10T04:53:01.849Z,38.00
2024-01-10T04:54:01.803Z,38.30
2024-01-10T04:55:01.793Z,38.60
2024-01-10T04:56:01.814Z,39.70
2024-01-10T04:57:01.769Z,38.70
2024-01-10T04:58:01.812Z,38.40
2024-01-10T04:59:01.779Z,38.50
2024-01-10T05:00:01.791Z,37.80
2024-01-10T05:01:01.817Z,37.20
2024-01-10T05:02:01.768Z,37.90
2024-01-10T05:03:01.737Z,37.10
2024-01-10T05:04:01.692Z,37.90
2024-01-10T05:05:01.834Z,37.90
2024-01-10T05:06:01.838Z,38.50
2024-01-10T05:07:01.680Z,38.70
2024-01-10T05:08:01.737Z,38.10
2024-01-10T05:09:01.695Z,38.20
2024-01-10T05:10:01.728Z,39.70
2024-01-10T05:11:01.813Z,38.30
2024-01-10T05:12:01.663Z,39.60
2024-01-10T05:13:01.645Z,37.70
2024-01-10T05:14:01.680Z,38.30
2024-01-10T05:15:01.642Z,38.80
2024-01-10T05:16:02.741Z,38.80
2024-01-10T05:17:01.648Z,38.00
2024-01-10T05:18:01.583Z,39.40
2024-01-10T05:19:01.611Z,37.70
2024-01-10T05:20:01.619Z,38.70
2024-01-10T05:21:01.572Z,38.80
2024-01-10T05:22:03.427Z,38.20
2024-01-10T05:23:01.576Z,39.50
2024-01-10T05:24:01.511Z,39.10
2024-01-10T05:25:01.551Z,38.30
2024-01-10T05:26:01.559Z,38.40
2024-01-10T05:27:01.494Z,38.90
2024-01-10T05:28:01.474Z,38.40
2024-01-10T05:29:01.551Z,38.80
2024-01-10T05:30:01.499Z,37.40
2024-01-10T05:31:01.715Z,39.10
2024-01-10T05:32:01.489Z,40.30
2024-01-10T05:33:01.561Z,38.80
2024-01-10T05:34:01.505Z,38.80
2024-01-10T05:35:01.574Z,38.90
2024-01-10T05:36:01.457Z,39.10
2024-01-10T05:37:01.451Z,38.20
2024-01-10T05:38:01.428Z,38.20
2024-01-10T05:39:01.410Z,39.80
2024-01-10T05:40:01.387Z,38.40
2024-01-10T05:41:01.428Z,37.00
2024-01-10T05:42:01.361Z,39.10
2024-01-10T05:43:01.359Z,37.70
2024-01-10T05:44:01.407Z,38.00
2024-01-10T05:45:01.336Z,38.80
2024-01-10T05:46:01.392Z,38.50
2024-01-10T05:47:01.329Z,38.50
2024-01-10T05:48:01.351Z,39.20
2024-01-10T05:49:01.485Z,39.00
2024-01-10T05:50:01.476Z,38.80
2024-01-10T05:51:01.276Z,38.80
2024-01-10T05:52:01.294Z,37.90
2024-01-10T05:53:01.385Z,38.20
2024-01-10T05:54:01.268Z,38.30
2024-01-10T05:55:01.291Z,38.50
2024-01-10T05:56:01.260Z,40.20
2024-01-10T05:57:01.339Z,39.70
2024-01-10T05:58:01.225Z,39.60
2024-01-10T05:59:01.215Z,38.00
2024-01-10T06:00:01.202Z,38.30
2024-01-10T06:01:01.227Z,39.40
2024-01-10T06:02:01.277Z,38.50
2024-01-10T06:03:01.177Z,38.90
2024-01-10T06:04:01.179Z,38.00
2024-01-10T06:05:04.261Z,39.30
2024-01-10T06:06:01.245Z,39.60
2024-01-10T06:07:01.133Z,38.70
2024-01-10T06:08:01.134Z,39.60
2024-01-10T06:09:01.136Z,38.70
2024-01-10T06:10:01.082Z,40.10
2024-01-10T06:11:01.126Z,38.40
2024-01-10T06:12:01.068Z,37.90
2024-01-10T06:13:01.138Z,38.80
2024-01-10T06:14:01.106Z,37.30
2024-01-10T06:15:01.046Z,39.30
2024-01-10T06:16:01.095Z,39.10
2024-01-10T06:17:01.054Z,39.40
2024-01-10T06:18:01.064Z,38.80
2024-01-10T06:19:01.178Z,39.30
2024-01-10T06:20:01.024Z,39.00
2024-01-10T06:21:00.984Z,38.90
2024-01-10T06:22:01.022Z,39.00
2024-01-10T06:23:01.032Z,37.70
2024-01-10T06:24:00.948Z,38.90
2024-01-10T06:25:00.969Z,40.50
2024-01-10T06:26:01.070Z,39.90
2024-01-10T06:27:00.959Z,39.40
2024-01-10T06:28:00.961Z,39.00
2024-01-10T06:29:01.028Z,41.10
2024-01-10T06:30:00.906Z,40.20
2024-01-10T06:31:01.009Z,40.40
2024-01-10T06:32:00.966Z,40.60
2024-01-10T06:33:00.981Z,40.90
2024-01-10T06:34:00.951Z,40.00
2024-01-10T06:35:00.962Z,40.70
2024-01-10T06:36:00.837Z,40.00
2024-01-10T06:37:01.980Z,40.40
2024-01-10T06:38:00.943Z,41.10
2024-01-10T06:39:01.027Z,39.90
2024-01-10T06:40:00.820Z,40.00
2024-01-10T06:41:00.927Z,40.50
2024-01-10T06:42:00.827Z,42.30
2024-01-10T06:43:00.808Z,43.00
2024-01-10T06:44:00.827Z,42.00
2024-01-10T06:45:00.763Z,41.30
2024-01-10T06:46:00.758Z,41.70
2024-01-10T06:47:01.318Z,41.20
2024-01-10T06:48:00.834Z,42.60
2024-01-10T06:49:00.826Z,41.40
2024-01-10T06:50:00.804Z,41.80
2024-01-10T06:51:00.709Z,41.10
2024-01-10T06:52:00.792Z,42.30
2024-01-10T06:53:00.788Z,42.20
2024-01-10T06:54:00.682Z,41.80
2024-01-10T06:55:00.709Z,41.10
2024-01-10T06:56:00.687Z,42.00
2024-01-10T06:57:00.726Z,41.60
2024-01-10T06:58:00.661Z,41.40
2024-01-10T06:59:00.694Z,42.20
2024-01-10T07:00:00.640Z,41.20
2024-01-10T07:01:00.661Z,40.90
2024-01-10T07:02:00.667Z,41.00
2024-01-10T07:03:00.657Z,39.80
2024-01-10T07:04:00.636Z,41.80
2024-01-10T07:05:01.223Z,41.80
2024-01-10T07:06:00.592Z,40.80
2024-01-10T07:07:00.612Z,40.50
2024-01-10T07:08:00.643Z,40.60
2024-01-10T07:09:00.557Z,42.00
2024-01-10T07:10:00.538Z,40.30
2024-01-10T07:11:00.604Z,40.90
2024-01-10T07:12:00.586Z,40.60
2024-01-10T07:13:00.555Z,41.40
2024-01-10T07:14:00.647Z,40.40
2024-01-10T07:15:00.508Z,40.40
2024-01-10T07:16:00.519Z,41.20
2024-01-10T07:17:00.540Z,41.50
2024-01-10T07:18:00.612Z,40.40
2024-01-10T07:19:00.606Z,39.80
2024-01-10T07:20:00.612Z,40.50
2024-01-10T07:21:00.491Z,40.20
2024-01-10T07:22:00.432Z,40.30
2024-01-10T07:23:00.493Z,41.20
2024-01-10T07:24:00.437Z,40.20
2024-01-10T07:25:00.425Z,41.00
2024-01-10T07:26:00.446Z,41.10
2024-01-10T07:27:00.480Z,40.70
2024-01-10T07:28:00.416Z,40.70
2024-01-10T07:29:00.408Z,39.40
2024-01-10T07:30:00.573Z,40.10
2024-01-10T07:31:02.468Z,41.00
2024-01-10T07:32:00.472Z,39.90
2024-01-10T07:33:00.531Z,40.30
2024-01-10T07:34:00.423Z,41.90
2024-01-10T07:35:00.469Z,40.80
2024-01-10T07:36:00.321Z,40.80
2024-01-10T07:37:00.355Z,40.40
2024-01-10T07:38:00.375Z,42.90
2024-01-10T07:39:03.844Z,40.90
2024-01-10T07:40:00.305Z,42.00
2024-01-10T07:41:00.629Z,42.20
2024-01-10T07:42:00.298Z,42.90
2024-01-10T07:43:00.254Z,43.80
2024-01-10T07:44:00.365Z,40.60
2024-01-10T07:45:00.260Z,41.80
2024-01-10T07:46:00.181Z,42.80
2024-01-10T07:47:00.260Z,41.90
2024-01-10T07:48:00.814Z,40.90
2024-01-10T07:49:00.306Z,42.30
2024-01-10T07:50:00.246Z,40.70
2024-01-10T07:51:00.305Z,42.60
2024-01-10T07:52:00.189Z,41.20
2024-01-10T07:53:00.243Z,42.40
2024-01-10T07:54:00.120Z,41.80
2024-01-10T07:55:00.157Z,41.50
2024-01-10T07:56:00.147Z,41.50
2024-01-10T07:57:00.158Z,40.60
2024-01-10T07:58:00.171Z,40.50
2024-01-10T07:59:00.139Z,39.20
2024-01-10T08:00:00.167Z,39.40
2024-01-10T08:01:00.149Z,40.30
2024-01-10T08:02:00.926Z,40.30
2024-01-10T08:03:00.261Z,39.90
2024-01-10T08:04:00.098Z,41.00
2024-01-10T08:05:00.162Z,40.10
2024-01-10T08:06:00.020Z,41.00
2024-01-10T08:07:00.130Z,40.40
2024-01-10T08:08:00.155Z,40.70
2024-01-10T08:09:00.042Z,40.50
2024-01-10T08:09:59.977Z,40.20
2024-01-10T08:11:00.033Z,40.70
2024-01-10T08:11:59.975Z,40.70
2024-01-10T08:13:00.022Z,40.50
2024-01-10T08:13:59.968Z,39.80
2024-01-10T08:14:59.953Z,41.30
2024-01-10T08:15:59.927Z,41.10
2024-01-10T08:16:59.962Z,41.60
2024-01-10T08:18:00.071Z,40.20
2024-01-10T08:19:00.018Z,40.70
2024-01-10T08:19:59.935Z,41.60
2024-01-10T08:20:59.903Z,41.60
2024-01-10T08:21:59.892Z,41.30
2024-01-10T08:22:59.924Z,41.40
2024-01-10T08:23:59.870Z,40.70
2024-01-10T08:24:59.863Z,41.70
2024-01-10T08:26:00.008Z,42.10
2024-01-10T08:26:59.833Z,41.50
2024-01-10T08:27:59.849Z,42.70
2024-01-10T08:28:59.892Z,41.90
2024-01-10T08:29:59.805Z,42.40
2024-01-10T08:31:04.391Z,41.30
2024-01-10T08:31:59.843Z,42.20
2024-01-10T08:33:00.001Z,41.10
2024-01-10T08:33:59.902Z,41.70
2024-01-10T08:34:59.740Z,42.60
2024-01-10T08:35:59.877Z,42.20
2024-01-10T08:36:59.769Z,41.60
2024-01-10T08:37:59.767Z,42.10
2024-01-10T08:38:59.760Z,42.70
2024-01-10T08:39:59.810Z,43.10
2024-01-10T08:40:59.734Z,44.00
2024-01-10T08:41:59.720Z,41.40
2024-01-10T08:42:59.697Z,42.50
2024-01-10T08:43:59.738Z,41.00
2024-01-10T08:44:59.695Z,42.90
2024-01-10T08:45:59.646Z,43.60
2024-01-10T08:46:59.683Z,42.40
2024-01-10T08:47:59.786Z,43.30
2024-01-10T08:48:59.742Z,43.80
2024-01-10T08:49:59.617Z,41.90
2024-01-10T08:50:59.589Z,44.10
2024-01-10T08:51:59.573Z,42.80
2024-01-10T08:52:59.616Z,43.70
2024-01-10T08:53:59.609Z,45.00
2024-01-10T08:54:59.620Z,44.30
2024-01-10T08:55:59.600Z,45.00
2024-01-10T08:56:59.544Z,44.70
2024-01-10T08:57:59.566Z,44.60
2024-01-10T08:58:59.591Z,44.80
2024-01-10T08:59:59.502Z,43.80
2024-01-10T09:00:59.523Z,44.40
2024-01-10T09:01:59.483Z,44.50
2024-01-10T09:02:59.507Z,44.50
2024-01-10T09:03:59.570Z,45.50
2024-01-10T09:04:59.524Z,44.20
2024-01-10T09:06:05.396Z,45.40
2024-01-10T09:06:59.495Z,44.20
2024-01-10T09:07:59.546Z,43.80
2024-01-10T09:08:59.500Z,45.30
2024-01-10T09:09:59.430Z,44.70
2024-01-10T09:10:59.422Z,45.80
2024-01-10T09:11:59.433Z,43.60
2024-01-10T09:12:59.416Z,43.70
2024-01-10T09:13:59.405Z,45.20
2024-01-10T09:14:59.371Z,44.10
2024-01-10T09:15:59.396Z,43.80
2024-01-10T09:16:59.434Z,44.90
2024-01-10T09:17:59.452Z,44.90
2024-01-10T09:18:59.448Z,44.70
2024-01-10T09:19:59.384Z,43.80
2024-01-10T09:20:59.348Z,44.00
2024-01-10T09:21:59.313Z,43.70
2024-01-10T09:22:59.410Z,42.80
2024-01-10T09:23:59.675Z,43.10
2024-01-10T09:24:59.274Z,43.50
2024-01-10T09:25:59.278Z,41.50
2024-01-10T09:26:59.247Z,42.80
2024-01-10T09:27:59.256Z,44.30
2024-01-10T09:28:59.324Z,41.90
2024-01-10T09:29:59.235Z,41.90
2024-01-10T09:30:59.307Z,41.60
2024-01-10T09:31:59.254Z,42.00
2024-01-10T09:32:59.300Z,42.40
2024-01-10T09:33:59.272Z,41.70
2024-01-10T09:34:59.391Z,43.40
2024-01-10T09:36:01.356Z,43.70
2024-01-10T09:36:59.150Z,41.60
2024-01-10T09:37:59.182Z,41.10
2024-01-10T09:38:59.181Z,42.50
2024-01-10T09:39:59.166Z,41.70
2024-01-10T09:40:59.186Z,40.20
2024-01-10T09:41:59.119Z,40.90
2024-01-10T09:42:59.106Z,41.80
2024-01-10T09:43:59.159Z,41.50
2024-01-10T09:44:59.092Z,41.90
2024-01-10T09:45:59.061Z,41.00
2024-01-10T09:46:59.148Z,40.60
2024-01-10T09:47:59.243Z,40.60
2024-01-10T09:49:02.231Z,41.20
2024-01-10T09:49:59.136Z,41.40
2024-01-10T09:50:59.035Z,40.60
2024-01-10T09:51:59.015Z,41.30
2024-01-10T09:52:59.063Z,40.40
2024-01-10T09:53:59.016Z,41.50
2024-01-10T09:54:59.008Z,40.20
2024-01-10T09:55:59.012Z,40.30
2024-01-10T09:56:58.971Z,39.40
2024-01-10T09:57:58.996Z,40.70
2024-01-10T09:58:59.012Z,40.30
2024-01-10T09:59:58.960Z,38.70
2024-01-10T10:00:58.993Z,39.20
2024-01-10T10:01:59.023Z,39.00
2024-01-10T10:02:59.069Z,38.80
2024-01-10T10:03:58.917Z,37.60
2024-01-10T10:04:58.995Z,38.40
2024-01-10T10:05:59.011Z,38.40
2024-01-10T10:06:59.017Z,39.90
2024-01-10T10:07:59.012Z,37.70
2024-01-10T10:08:58.854Z,37.90
2024-01-10T10:09:58.892Z,37.40
2024-01-10T10:10:58.847Z,37.50
2024-01-10T10:11:58.856Z,35.90
2024-01-10T10:12:58.862Z,37.70
2024-01-10T10:13:58.856Z,37.10
2024-01-10T10:14:58.882Z,36.80
2024-01-10T10:15:58.800Z,37.40
2024-01-10T10:16:58.805Z,37.20
2024-01-10T10:17:58.880Z,36.80
2024-01-10T10:18:59.135Z,35.90
2024-01-10T10:19:58.855Z,36.70
2024-01-10T10:20:58.818Z,36.20
2024-01-10T10:21:58.753Z,35.70
2024-01-10T10:22:58.783Z,36.20
2024-01-10T10:23:58.730Z,35.70
2024-01-10T10:24:58.803Z,36.00
2024-01-10T10:25:58.737Z,35.00
2024-01-10T10:26:58.762Z,36.30
2024-01-10T10:27:58.696Z,36.60
2024-01-10T10:28:58.743Z,36.20
2024-01-10T10:29:58.681Z,35.30
2024-01-10T10:30:59.100Z,35.70
2024-01-10T10:31:58.738Z,36.50
2024-01-10T10:32:58.796Z,35.10
2024-01-10T10:33:58.688Z,34.10
2024-01-10T10:34:58.706Z,33.00
2024-01-10T10:35:58.647Z,32.80
2024-01-10T10:36:58.641Z,33.70
2024-01-10T10:37:58.637Z,33.10
2024-01-10T10:38:58.579Z,33.90
2024-01-10T10:39:58.617Z,33.20
2024-01-10T10:40:58.633Z,32.80
2024-01-10T10:41:58.552Z,33.30
2024-01-10T10:42:58.551Z,33.50
2024-01-10T10:43:58.566Z,33.80
2024-01-10T10:44:58.784Z,32.70
2024-01-10T10:45:58.563Z,30.60
2024-01-10T10:47:08.654Z,32.20
2024-01-10T10:47:58.671Z,30.80
2024-01-10T10:48:58.712Z,31.20
2024-01-10T10:49:58.605Z,31.30
2024-01-10T10:50:58.568Z,31.50
2024-01-10T10:51:58.551Z,29.90
2024-01-10T10:52:58.636Z,31.60
2024-01-10T10:53:58.567Z,31.80
2024-01-10T10:54:58.516Z,31.50
2024-01-10T10:55:58.494Z,31.20
2024-01-10T10:56:58.454Z,30.60
2024-01-10T10:58:04.809Z,31.70
2024-01-10T10:58:58.486Z,30.90
2024-01-10T10:59:58.485Z,31.60
2024-01-10T11:00:58.468Z,31.30
2024-01-10T11:01:58.429Z,31.60
2024-01-10T11:02:58.400Z,32.80
2024-01-10T11:03:58.461Z,31.60
2024-01-10T11:04:58.487Z,31.60
2024-01-10T11:05:58.455Z,32.40
2024-01-10T11:06:58.445Z,31.70
2024-01-10T11:07:58.391Z,31.20
2024-01-10T11:08:58.396Z,31.60
2024-01-10T11:09:58.346Z,32.00
2024-01-10T11:10:58.360Z,32.10
2024-01-10T11:11:58.297Z,32.00
2024-01-10T11:12:58.308Z,31.00
2024-01-10T11:13:58.461Z,29.70
2024-01-10T11:14:58.319Z,29.80
2024-01-10T11:15:58.259Z,29.80
2024-01-10T11:16:58.302Z,31.70
2024-01-10T11:17:58.329Z,30.30
2024-01-10T11:18:58.315Z,31.00
2024-01-10T11:19:58.268Z,30.90
2024-01-10T11:20:58.281Z,30.60
2024-01-10T11:21:58.223Z,30.60
2024-01-10T11:22:58.228Z,30.00
2024-01-10T11:23:58.193Z,29.90
2024-01-10T11:25:00.909Z,29.20
2024-01-10T11:25:58.163Z,30.10
2024-01-10T11:26:58.151Z,29.80
2024-01-10T11:28:03.569Z,29.90
2024-01-10T11:28:58.167Z,28.50
2024-01-10T11:29:58.241Z,28.80
2024-01-10T11:30:58.425Z,28.00
2024-01-10T11:31:58.157Z,28.10
2024-01-10T11:32:58.123Z,29.30
2024-01-10T11:33:58.138Z,27.60
2024-01-10T11:34:58.245Z,28.90
2024-01-10T11:36:01.200Z,28.30
2024-01-10T11:36:58.102Z,28.20
2024-01-10T11:37:58.078Z,26.30
2024-01-10T11:38:58.144Z,26.20
2024-01-10T11:39:58.052Z,27.00
2024-01-10T11:40:58.001Z,28.40
2024-01-10T11:41:58.001Z,28.60
2024-01-10T11:42:58.035Z,28.60
2024-01-10T11:43:57.983Z,28.20
2024-01-10T11:44:58.049Z,28.40
2024-01-10T11:45:57.957Z,26.60
2024-01-10T11:46:57.999Z,26.60
2024-01-10T11:47:57.993Z,27.20
2024-01-10T11:48:58.005Z,27.40
2024-01-10T11:49:58.049Z,27.30
2024-01-10T11:50:57.948Z,27.00
2024-01-10T11:51:57.925Z,27.80
2024-01-10T11:52:57.973Z,27.00
2024-01-10T11:53:57.879Z,26.50
2024-01-10T11:54:57.874Z,28.10
2024-01-10T11:55:57.899Z,27.40
2024-01-10T11:56:57.969Z,25.40
2024-01-10T11:57:57.836Z,25.40
2024-01-10T11:58:57.876Z,27.00
2024-01-10T11:59:57.878Z,26.80
2024-01-10T12:00:57.886Z,26.30
2024-01-10T12:01:57.840Z,25.30
2024-01-10T12:02:57.790Z,23.80
2024-01-10T12:04:10.136Z,24.00
2024-01-10T12:04:58.050Z,22.50
2024-01-10T12:05:57.871Z,22.80
2024-01-10T12:06:58.039Z,21.40
2024-01-10T12:07:57.805Z,22.30
2024-01-10T12:08:57.728Z,23.40
2024-01-10T12:09:57.753Z,23.00
2024-01-10T12:10:57.735Z,23.60
2024-01-10T12:11:57.698Z,23.40
2024-01-10T12:13:00.428Z,22.70
2024-01-10T12:13:57.762Z,23.50
2024-01-10T12:14:57.793Z,24.50
2024-01-10T12:15:57.706Z,23.50
2024-01-10T12:16:57.678Z,24.00
2024-01-10T12:17:57.729Z,22.30
2024-01-10T12:18:57.710Z,21.80
2024-01-10T12:19:57.720Z,22.70
2024-01-10T12:20:57.661Z,24.20
2024-01-10T12:21:57.612Z,22.10
2024-01-10T12:22:57.618Z,22.30
2024-01-10T12:23:57.585Z,22.20
2024-01-10T12:24:57.614Z,22.30
2024-01-10T12:25:57.624Z,22.10
2024-01-10T12:26:57.562Z,22.30
2024-01-10T12:27:57.571Z,22.10
2024-01-10T12:28:57.725Z,21.40
2024-01-10T12:29:57.575Z,21.30
2024-01-10T12:30:57.590Z,20.30
2024-01-10T12:31:57.585Z,20.50
2024-01-10T12:32:57.698Z,20.30
2024-01-10T12:33:57.750Z,20.90
2024-01-10T12:34:57.600Z,20.00
2024-01-10T12:35:57.562Z,20.90
2024-01-10T12:36:57.480Z,20.20
2024-01-10T12:37:57.596Z,20.40
2024-01-10T12:38:57.468Z,20.80
2024-01-10T12:39:57.535Z,20.30
2024-01-10T12:40:57.498Z,21.10
2024-01-10T12:41:57.477Z,20.10
2024-01-10T12:42:57.513Z,20.20
2024-01-10T12:43:57.454Z,21.10
2024-01-10T12:44:57.449Z,20.20
2024-01-10T12:45:57.418Z,20.50
2024-01-10T12:46:57.434Z,21.80
2024-01-10T12:47:57.539Z,20.60
2024-01-10T12:48:57.407Z,20.10
2024-01-10T12:49:57.370Z,19.40
2024-01-10T12:50:57.347Z,19.40
2024-01-10T12:51:57.312Z,19.20